createdAt,value
2023-05-15T00:00:48.649Z,26.5385
2023-05-15T00:01:50.402Z,21.0000
2023-05-15T00:02:52.196Z,21.3846
2023-05-15T00:03:53.938Z,23.2308
2023-05-15T00:04:55.712Z,33.3077
2023-05-15T00:05:57.350Z,20.0769
2023-05-15T00:06:59.069Z,26.3846
2023-05-15T00:08:00.785Z,31.0769
2023-05-15T00:09:02.519Z,31.6923
2023-05-15T00:10:04.283Z,19.4615
2023-05-15T00:11:06.030Z,22.9231
2023-05-15T00:12:07.722Z,20.2308
2023-05-15T00:13:09.455Z,17.4615
2023-05-15T00:14:11.198Z,19.4615
2023-05-15T00:15:12.955Z,15.3077
2023-05-15T00:16:14.743Z,17.9231
2023-05-15T00:17:16.405Z,18.6154
2023-05-15T00:18:18.127Z,16.6154
2023-05-15T00:19:19.893Z,22.1538
2023-05-15T00:20:21.623Z,21.3846
2023-05-15T00:21:23.342Z,12.5385
2023-05-15T00:22:25.079Z,11.6923
2023-05-15T00:23:26.796Z,10.5385
2023-05-15T00:24:28.543Z,11.3846
2023-05-15T00:25:30.277Z,11.0000
2023-05-15T00:26:32.021Z,20.1538
2023-05-15T00:27:33.745Z,24.5385
2023-05-15T00:28:36.343Z,21.6923
2023-05-15T00:29:37.196Z,13.7692
2023-05-15T00:30:38.927Z,16.0000
2023-05-15T00:31:40.732Z,9.0769
2023-05-15T00:32:42.460Z,11.6923
2023-05-15T00:33:44.135Z,16.7692
2023-05-15T00:34:45.880Z,15.3077
2023-05-15T00:35:47.616Z,23.2308
2023-05-15T00:36:49.392Z,20.6923
2023-05-15T00:37:51.106Z,28.6923
2023-05-15T00:38:52.833Z,22.6923
2023-05-15T00:39:54.545Z,21.0769
2023-05-15T00:40:56.281Z,22.5385
2023-05-15T00:41:59.496Z,24.7692
2023-05-15T00:43:01.370Z,25.5385
2023-05-15T00:44:01.510Z,22.5385
2023-05-15T00:45:03.243Z,20.8462
2023-05-15T00:46:04.972Z,15.3077
2023-05-15T00:47:06.709Z,14.3077
2023-05-15T00:48:08.444Z,15.8462
2023-05-15T00:49:10.175Z,28.7692
2023-05-15T00:50:11.896Z,31.3846
2023-05-15T00:51:13.634Z,21.0769
2023-05-15T00:52:15.361Z,19.6923
2023-05-15T00:53:17.113Z,23.0000
2023-05-15T00:54:18.881Z,19.8462
2023-05-15T00:55:20.580Z,18.7692
2023-05-15T00:56:22.293Z,25.0769
2023-05-15T00:57:24.032Z,27.0000
2023-05-15T00:58:25.764Z,20.0000
2023-05-15T00:59:27.512Z,21.0769
2023-05-15T01:00:29.246Z,18.3846
2023-05-15T01:01:31.017Z,27.4615
2023-05-15T01:02:32.785Z,18.6923
2023-05-15T01:03:34.471Z,21.4615
2023-05-15T01:04:36.228Z,22.6154
2023-05-15T01:05:37.920Z,24.4615
2023-05-15T01:06:39.653Z,27.3846
2023-05-15T01:07:41.373Z,24.1538
2023-05-15T01:08:43.104Z,22.3846
2023-05-15T01:09:44.873Z,20.1538
2023-05-15T01:10:46.589Z,16.6154
2023-05-15T01:11:48.329Z,29.6154
2023-05-15T01:12:50.038Z,29.0769
2023-05-15T01:13:51.769Z,30.2308
2023-05-15T01:14:53.504Z,24.2308
2023-05-15T01:15:55.277Z,21.4615
2023-05-15T01:16:57.002Z,22.7692
2023-05-15T01:17:58.705Z,13.3846
2023-05-15T01:19:00.483Z,15.4615
2023-05-15T01:20:02.191Z,11.5385
2023-05-15T01:21:03.924Z,11.0000
2023-05-15T01:22:05.662Z,20.5385
2023-05-15T01:23:07.394Z,16.8462
2023-05-15T01:24:09.130Z,18.4615
2023-05-15T01:25:10.827Z,20.8462
2023-05-15T01:26:12.563Z,14.3846
2023-05-15T01:27:14.327Z,19.3846
2023-05-15T01:28:16.023Z,24.3077
2023-05-15T01:29:17.782Z,29.0769
2023-05-15T01:30:19.507Z,28.8462
2023-05-15T01:31:21.249Z,27.7692
2023-05-15T01:32:23.118Z,23.4615
2023-05-15T01:33:24.708Z,17.0769
2023-05-15T01:34:26.424Z,15.0000
2023-05-15T01:35:28.426Z,22.1538
2023-05-15T01:36:29.907Z,15.0769
2023-05-15T01:37:31.619Z,16.9231
2023-05-15T01:38:33.371Z,22.3077
2023-05-15T01:39:35.088Z,22.5385
2023-05-15T01:40:36.847Z,22.3077
2023-05-15T01:41:38.568Z,26.5385
2023-05-15T01:42:40.299Z,26.3077
2023-05-15T01:43:42.045Z,17.6923
2023-05-15T01:44:43.770Z,18.3077
2023-05-15T01:45:45.474Z,17.2308
2023-05-15T01:46:47.289Z,20.0000
2023-05-15T01:47:48.975Z,23.7692
2023-05-15T01:48:50.695Z,24.9231
2023-05-15T01:49:52.404Z,23.8462
2023-05-15T01:50:54.146Z,25.0000
2023-05-15T01:51:55.872Z,29.2308
2023-05-15T01:52:57.610Z,19.1538
2023-05-15T01:53:59.366Z,13.3846
2023-05-15T01:55:01.116Z,17.0769
2023-05-15T01:56:02.803Z,18.0769
2023-05-15T01:57:04.547Z,25.5385
2023-05-15T01:58:06.270Z,19.9231
2023-05-15T01:59:08.038Z,21.1538
2023-05-15T02:00:09.794Z,13.5385
2023-05-15T02:01:11.473Z,12.9231
2023-05-15T02:02:13.214Z,10.9231
2023-05-15T02:03:15.009Z,11.4615
2023-05-15T02:04:16.678Z,19.3077
2023-05-15T02:05:24.773Z,17.5385
2023-05-15T02:07:57.943Z,4.4167
2023-05-15T02:08:59.570Z,15.3077
2023-05-15T02:10:01.309Z,20.3077
2023-05-15T02:11:03.116Z,12.7692
2023-05-15T02:12:04.764Z,13.9231
2023-05-15T02:13:06.524Z,4.3077
2023-05-15T02:14:08.252Z,12.3077
2023-05-15T02:15:09.974Z,21.5385
2023-05-15T02:16:11.878Z,15.6923
2023-05-15T02:17:13.451Z,16.0000
2023-05-15T02:18:15.161Z,20.7692
2023-05-15T02:19:16.964Z,15.6923
2023-05-15T02:20:18.624Z,12.6923
2023-05-15T02:21:20.374Z,12.6154
2023-05-15T02:22:22.190Z,10.2308
2023-05-15T02:23:23.818Z,5.2308
2023-05-15T02:24:25.568Z,6.6923
2023-05-15T02:25:27.300Z,11.4615
2023-05-15T02:26:29.026Z,9.1538
2023-05-15T02:27:30.759Z,10.1538
2023-05-15T02:28:32.562Z,18.4615
2023-05-15T02:29:34.208Z,13.1538
2023-05-15T02:30:35.932Z,17.4615
2023-05-15T02:31:37.718Z,16.3077
2023-05-15T02:32:39.422Z,8.0000
2023-05-15T02:33:41.210Z,9.5385
2023-05-15T02:34:42.859Z,6.2308
2023-05-15T02:35:44.584Z,8.8462
2023-05-15T02:36:46.336Z,14.2308
2023-05-15T02:37:48.083Z,10.8462
2023-05-15T02:38:49.802Z,12.0769
2023-05-15T02:39:51.601Z,15.7692
2023-05-15T02:40:53.244Z,9.8462
2023-05-15T02:41:54.966Z,16.5385
2023-05-15T02:42:56.727Z,13.7692
2023-05-15T02:43:58.451Z,12.0000
2023-05-15T02:45:00.170Z,12.6923
2023-05-15T02:46:02.028Z,10.6923
2023-05-15T02:47:03.622Z,7.4615
2023-05-15T02:48:05.421Z,16.0000
2023-05-15T02:49:07.105Z,12.7692
2023-05-15T02:50:08.835Z,8.6923
2023-05-15T02:51:10.562Z,10.0769
2023-05-15T02:52:12.366Z,6.1538
2023-05-15T02:53:14.027Z,6.1538
2023-05-15T02:54:15.768Z,8.1538
2023-05-15T02:55:17.472Z,10.9231
2023-05-15T02:56:19.201Z,15.6923
2023-05-15T02:57:20.939Z,18.6154
2023-05-15T02:58:22.727Z,15.0769
2023-05-15T02:59:24.413Z,14.7692
2023-05-15T03:00:26.150Z,15.6154
2023-05-15T03:01:27.874Z,23.3846
2023-05-15T03:02:29.606Z,22.4615
2023-05-15T03:03:31.338Z,17.8462
2023-05-15T03:04:33.200Z,17.3846
2023-05-15T03:05:34.803Z,12.3846
2023-05-15T03:06:36.512Z,20.1538
2023-05-15T03:07:38.238Z,13.9231
2023-05-15T03:08:39.968Z,18.6923
2023-05-15T03:09:41.781Z,12.3077
2023-05-15T03:10:43.454Z,18.0000
2023-05-15T03:11:45.166Z,25.5385
2023-05-15T03:12:46.888Z,18.0769
2023-05-15T03:13:48.630Z,8.7692
2023-05-15T03:14:50.364Z,2.5385
2023-05-15T03:15:52.186Z,13.9231
2023-05-15T03:16:53.857Z,13.8462
2023-05-15T03:17:55.574Z,16.3077
2023-05-15T03:18:57.294Z,14.7692
2023-05-15T03:19:59.019Z,14.0769
2023-05-15T03:21:00.751Z,18.0000
2023-05-15T03:22:02.590Z,18.6154
2023-05-15T03:23:04.195Z,25.0769
2023-05-15T03:24:05.915Z,29.6154
2023-05-15T03:25:07.664Z,26.4615
2023-05-15T03:26:09.417Z,25.6923
2023-05-15T03:27:11.125Z,26.9231
2023-05-15T03:28:12.917Z,16.9231
2023-05-15T03:29:14.559Z,26.2308
2023-05-15T03:30:16.289Z,16.2308
2023-05-15T03:31:18.083Z,13.1538
2023-05-15T03:32:19.766Z,16.8462
2023-05-15T03:33:21.493Z,18.4615
2023-05-15T03:34:23.280Z,11.0000
2023-05-15T03:35:25.114Z,22.3846
2023-05-15T03:36:26.653Z,14.6923
2023-05-15T03:37:28.410Z,14.3846
2023-05-15T03:38:30.188Z,8.5385
2023-05-15T03:39:31.841Z,10.0769
2023-05-15T03:40:33.649Z,8.3077
2023-05-15T03:41:35.306Z,12.3077
2023-05-15T03:42:37.043Z,7.8462
2023-05-15T03:43:38.780Z,12.5385
2023-05-15T03:44:40.510Z,12.3846
2023-05-15T03:45:42.210Z,22.1538
2023-05-15T03:46:44.095Z,14.6154
2023-05-15T03:47:45.731Z,22.3077
2023-05-15T03:48:47.427Z,19.0000
2023-05-15T03:49:49.136Z,9.7692
2023-05-15T03:50:50.889Z,10.4615
2023-05-15T03:51:52.630Z,9.3077
2023-05-15T03:52:54.428Z,9.2308
2023-05-15T03:53:56.082Z,7.6923
2023-05-15T03:54:57.789Z,8.0769
2023-05-15T03:55:59.514Z,10.6923
2023-05-15T03:57:01.282Z,15.3077
2023-05-15T03:58:02.998Z,3.4615
2023-05-15T03:59:04.806Z,1.6923
2023-05-15T04:00:06.443Z,6.3846
2023-05-15T04:01:08.182Z,8.3846
2023-05-15T04:02:09.936Z,16.1538
2023-05-15T04:03:11.794Z,14.3846
2023-05-15T04:04:13.390Z,14.6154
2023-05-15T04:06:30.189Z,2.3333
2023-05-15T04:07:31.837Z,12.6923
2023-05-15T04:08:33.553Z,4.5385
2023-05-15T04:09:35.385Z,8.0769
2023-05-15T04:10:37.038Z,14.6923
2023-05-15T04:11:38.777Z,12.9231
2023-05-15T04:12:40.509Z,23.2308
2023-05-15T04:13:42.212Z,9.4615
2023-05-15T04:14:44.126Z,17.1538
2023-05-15T04:15:45.714Z,6.3077
2023-05-15T04:16:47.484Z,8.0000
2023-05-15T04:17:49.171Z,11.5385
2023-05-15T04:18:50.918Z,11.0769
2023-05-15T04:19:52.594Z,15.3846
2023-05-15T04:20:54.432Z,15.8462
2023-05-15T04:21:56.082Z,14.3077
2023-05-15T04:22:57.817Z,6.8462
2023-05-15T04:23:59.521Z,15.5385
2023-05-15T04:25:01.253Z,16.6154
2023-05-15T04:26:02.980Z,24.9231
2023-05-15T04:27:04.910Z,11.9231
2023-05-15T04:28:06.470Z,8.6923
2023-05-15T04:29:08.200Z,7.1538
2023-05-15T04:30:09.941Z,5.6923
2023-05-15T04:31:11.641Z,10.7692
2023-05-15T04:32:13.445Z,7.7692
2023-05-15T04:33:15.248Z,9.3846
2023-05-15T04:34:16.861Z,7.4615
2023-05-15T04:35:18.586Z,6.6154
2023-05-15T04:36:20.302Z,4.6923
2023-05-15T04:37:22.054Z,6.0769
2023-05-15T04:38:23.789Z,8.6154
2023-05-15T04:39:25.604Z,8.3077
2023-05-15T04:40:27.239Z,5.1538
2023-05-15T04:41:28.958Z,1.7692
2023-05-15T04:42:30.694Z,0.4615
2023-05-15T04:43:32.461Z,6.7692
2023-05-15T04:44:34.190Z,18.0769
2023-05-15T04:45:35.960Z,19.3077
2023-05-15T04:46:37.739Z,14.4615
2023-05-15T04:47:39.422Z,11.0000
2023-05-15T04:48:41.104Z,11.9231
2023-05-15T04:49:42.834Z,12.5385
2023-05-15T04:50:44.654Z,4.6154
2023-05-15T04:51:46.360Z,5.5385
2023-05-15T04:52:48.011Z,8.3846
2023-05-15T04:53:49.741Z,4.8462
2023-05-15T04:54:51.496Z,14.5385
2023-05-15T04:55:53.218Z,8.6923
2023-05-15T04:56:54.986Z,8.0769
2023-05-15T04:57:56.663Z,18.6154
2023-05-15T04:58:58.395Z,17.5385
2023-05-15T05:00:00.161Z,6.7692
2023-05-15T05:01:03.894Z,15.6154
2023-05-15T05:02:03.709Z,13.5385
2023-05-15T05:03:05.494Z,15.0000
2023-05-15T05:04:07.139Z,17.0000
2023-05-15T05:05:08.800Z,16.3846
2023-05-15T05:06:10.532Z,6.6923
2023-05-15T05:07:12.242Z,9.9231
2023-05-15T05:08:14.046Z,12.0000
2023-05-15T05:09:15.702Z,18.3846
2023-05-15T05:10:17.423Z,16.9231
2023-05-15T05:11:19.221Z,10.0769
2023-05-15T05:12:20.908Z,17.0769
2023-05-15T05:13:22.629Z,12.2308
2023-05-15T05:14:24.453Z,22.4615
2023-05-15T05:15:26.417Z,17.3846
2023-05-15T05:16:27.920Z,15.6923
2023-05-15T05:17:29.643Z,11.7692
2023-05-15T05:18:31.368Z,8.5385
2023-05-15T05:19:33.025Z,11.7692
2023-05-15T05:20:34.843Z,14.6154
2023-05-15T05:21:36.497Z,14.6923
2023-05-15T05:22:38.239Z,18.5385
2023-05-15T05:23:39.957Z,8.0769
2023-05-15T05:24:41.669Z,6.6923
2023-05-15T05:25:43.495Z,16.6923
2023-05-15T05:26:45.122Z,13.0769
2023-05-15T05:27:46.883Z,15.1538
2023-05-15T05:28:48.603Z,17.6923
2023-05-15T05:29:50.323Z,20.4615
2023-05-15T05:30:52.045Z,16.3846
2023-05-15T05:31:53.924Z,18.5385
2023-05-15T05:32:55.568Z,15.1538
2023-05-15T05:33:57.257Z,12.8462
2023-05-15T05:34:58.979Z,13.7692
2023-05-15T05:36:00.718Z,18.2308
2023-05-15T05:37:02.538Z,15.6154
2023-05-15T05:38:04.173Z,21.9231
2023-05-15T05:39:05.901Z,18.3077
2023-05-15T05:40:07.628Z,17.8462
2023-05-15T05:41:09.363Z,17.3846
2023-05-15T05:42:11.076Z,15.1538
2023-05-15T05:43:12.914Z,13.0000
2023-05-15T05:44:14.543Z,14.0000
2023-05-15T05:45:16.294Z,23.2308
2023-05-15T05:46:18.069Z,22.9231
2023-05-15T05:47:19.748Z,26.6923
2023-05-15T05:51:21.760Z,9.5000
2023-05-15T05:52:23.401Z,16.3846
2023-05-15T05:53:25.157Z,21.6923
2023-05-15T05:54:26.942Z,20.0000
2023-05-15T05:55:28.602Z,20.5385
2023-05-15T05:56:30.333Z,18.4615
2023-05-15T05:57:32.086Z,17.2308
2023-05-15T05:58:33.819Z,12.2308
2023-05-15T05:59:35.622Z,15.8462
2023-05-15T06:00:37.262Z,8.9231
2023-05-15T06:01:38.992Z,14.3846
2023-05-15T06:02:40.887Z,11.8462
2023-05-15T06:03:42.567Z,13.0000
2023-05-15T06:04:44.298Z,7.6154
2023-05-15T06:05:45.991Z,9.0000
2023-05-15T06:06:47.672Z,5.0769
2023-05-15T06:07:49.371Z,6.0769
2023-05-15T06:08:51.127Z,10.9231
2023-05-15T06:09:52.839Z,15.1538
2023-05-15T06:10:54.583Z,12.7692
2023-05-15T06:11:56.376Z,11.3077
2023-05-15T06:12:58.036Z,10.6154
2023-05-15T06:13:59.759Z,13.5385
2023-05-15T06:15:01.506Z,6.9231
2023-05-15T06:16:03.237Z,6.6154
2023-05-15T06:17:05.120Z,13.4615
2023-05-15T06:18:06.720Z,15.3077
2023-05-15T06:19:08.447Z,11.0769
2023-05-15T06:20:10.151Z,4.6923
2023-05-15T06:21:11.994Z,8.2308
2023-05-15T06:22:13.616Z,7.8462
2023-05-15T06:23:15.392Z,4.8462
2023-05-15T06:24:17.087Z,4.3846
2023-05-15T06:25:18.799Z,7.9231
2023-05-15T06:26:20.528Z,6.9231
2023-05-15T06:27:22.237Z,8.8462
2023-05-15T06:28:24.040Z,9.4615
2023-05-15T06:29:25.726Z,13.4615
2023-05-15T06:30:27.549Z,13.1538
2023-05-15T06:31:29.246Z,8.6154
2023-05-15T06:32:32.455Z,4.0000
2023-05-15T06:33:32.662Z,7.3077
2023-05-15T06:34:34.480Z,14.1538
2023-05-15T06:35:36.098Z,12.2308
2023-05-15T06:36:37.817Z,5.6923
2023-05-15T06:37:39.577Z,6.4615
2023-05-15T06:38:41.292Z,8.3846
2023-05-15T06:39:43.004Z,6.9231
2023-05-15T06:40:44.819Z,3.1538
2023-05-15T06:41:46.492Z,10.6154
2023-05-15T06:42:48.213Z,7.6923
2023-05-15T06:43:50.002Z,6.2308
2023-05-15T06:44:51.673Z,9.8462
2023-05-15T06:45:53.421Z,7.9231
2023-05-15T06:46:55.307Z,9.8462
2023-05-15T06:47:58.506Z,11.7692
2023-05-15T06:51:56.565Z,4.1667
2023-05-15T06:52:58.198Z,13.4615
2023-05-15T06:53:59.939Z,30.9231
2023-05-15T06:55:01.771Z,41.5385
2023-05-15T06:56:03.524Z,32.9231
2023-05-15T06:57:05.135Z,28.8462
2023-05-15T06:58:06.884Z,16.2308
2023-05-15T06:59:08.632Z,16.9231
2023-05-15T07:00:10.440Z,9.4615
2023-05-15T07:01:12.102Z,7.0000
2023-05-15T07:02:13.908Z,11.3077
2023-05-15T07:03:15.546Z,12.1538
2023-05-15T07:04:17.312Z,8.8462
2023-05-15T07:05:19.086Z,8.0000
2023-05-15T07:06:20.769Z,9.5385
2023-05-15T07:07:22.495Z,15.1538
2023-05-15T07:08:24.222Z,13.3077
2023-05-15T07:09:25.954Z,21.3846
2023-05-15T07:10:27.967Z,13.3846
2023-05-15T07:11:29.441Z,11.0769
2023-05-15T07:12:31.165Z,9.6154
2023-05-15T07:13:32.880Z,16.3077
2023-05-15T07:14:34.620Z,18.0769
2023-05-15T07:15:36.379Z,14.6154
2023-05-15T07:16:38.094Z,13.3846
2023-05-15T07:17:39.892Z,13.1538
2023-05-15T07:18:41.605Z,12.9231
2023-05-15T07:19:43.286Z,16.3077
2023-05-15T07:20:44.996Z,10.2308
2023-05-15T07:21:46.768Z,8.6154
2023-05-15T07:22:56.417Z,8.4615
2023-05-15T07:23:50.201Z,15.8462
2023-05-15T07:24:51.935Z,16.8462
2023-05-15T07:25:53.680Z,5.9231
2023-05-15T07:26:58.540Z,7.2308
2023-05-15T07:27:57.158Z,7.3077
2023-05-15T07:28:58.857Z,7.8462
2023-05-15T07:30:00.618Z,9.8462
2023-05-15T07:31:03.124Z,14.4615
2023-05-15T07:32:04.111Z,8.0000
2023-05-15T07:33:05.816Z,8.3077
2023-05-15T07:34:07.542Z,6.3846
2023-05-15T07:35:09.244Z,5.8462
2023-05-15T07:36:10.987Z,7.8462
2023-05-15T07:37:13.599Z,4.3846
2023-05-15T07:38:14.551Z,4.3077
2023-05-15T07:39:16.209Z,17.0000
2023-05-15T07:40:17.937Z,18.5385
2023-05-15T07:41:19.662Z,12.8462
2023-05-15T07:42:21.389Z,17.5385
2023-05-15T07:43:23.126Z,13.2308
2023-05-15T07:44:24.832Z,10.5385
2023-05-15T07:45:27.117Z,10.8462
2023-05-15T07:46:28.343Z,5.3846
2023-05-15T07:47:30.075Z,9.6154
2023-05-15T07:48:31.778Z,7.6154
2023-05-15T07:49:33.509Z,14.5385
2023-05-15T07:50:35.221Z,10.1538
2023-05-15T07:51:36.963Z,14.3846
2023-05-15T07:52:38.683Z,16.7692
2023-05-15T07:53:40.442Z,13.3077
2023-05-15T07:54:42.169Z,6.0000
2023-05-15T07:55:43.897Z,6.8462
2023-05-15T07:56:45.608Z,11.9231
2023-05-15T07:57:53.534Z,10.3846
2023-05-15T08:00:04.259Z,2.0833
2023-05-15T08:01:05.946Z,5.2308
2023-05-15T08:02:07.693Z,17.3077
2023-05-15T08:03:09.553Z,13.2308
2023-05-15T08:04:11.112Z,12.0769
2023-05-15T08:05:12.820Z,10.3846
2023-05-15T08:06:14.527Z,11.4615
2023-05-15T08:07:16.290Z,8.1538
2023-05-15T08:08:18.102Z,5.7692
2023-05-15T08:09:19.752Z,4.8462
2023-05-15T08:10:21.465Z,10.6154
2023-05-15T08:11:23.202Z,10.7692
2023-05-15T08:12:25.519Z,6.1538
2023-05-15T08:13:26.688Z,4.3077
2023-05-15T08:14:28.519Z,9.5385
2023-05-15T08:15:30.144Z,10.6154
2023-05-15T08:16:31.902Z,8.6154
2023-05-15T08:17:33.627Z,11.7692
2023-05-15T08:18:35.332Z,9.5385
2023-05-15T08:19:37.048Z,8.5385
2023-05-15T08:20:38.857Z,5.2308
2023-05-15T08:21:40.533Z,8.5385
2023-05-15T08:22:42.245Z,5.3077
2023-05-15T08:23:44.004Z,8.0000
2023-05-15T08:24:45.728Z,7.6154
2023-05-15T08:25:47.540Z,6.2308
2023-05-15T08:26:49.186Z,4.6154
2023-05-15T08:27:50.903Z,12.3846
2023-05-15T08:28:52.639Z,3.4615
2023-05-15T08:29:54.407Z,6.3846
2023-05-15T08:30:56.204Z,8.9231
2023-05-15T08:31:57.939Z,8.0769
2023-05-15T08:32:59.618Z,6.4615
2023-05-15T08:34:01.332Z,11.1538
2023-05-15T08:35:03.032Z,7.4615
2023-05-15T08:36:04.842Z,4.9231
2023-05-15T08:37:06.508Z,11.6154
2023-05-15T08:38:08.323Z,15.0769
2023-05-15T08:39:09.983Z,11.3077
2023-05-15T08:40:11.721Z,5.4615
2023-05-15T08:41:13.441Z,5.7692
2023-05-15T08:42:15.193Z,12.3846
2023-05-15T08:43:16.980Z,12.1538
2023-05-15T08:44:18.659Z,13.0000
2023-05-15T08:45:20.381Z,20.1538
2023-05-15T08:46:22.152Z,12.6154
2023-05-15T08:47:23.826Z,13.4615
2023-05-15T08:48:25.700Z,9.5385
2023-05-15T08:49:27.310Z,19.3077
2023-05-15T08:50:29.041Z,15.3077
2023-05-15T08:51:30.767Z,15.3846
2023-05-15T08:52:32.497Z,16.0000
2023-05-15T08:53:34.259Z,11.4615
2023-05-15T08:54:36.006Z,11.0000
2023-05-15T08:55:37.717Z,17.0000
2023-05-15T08:56:39.447Z,21.0000
2023-05-15T08:57:41.174Z,20.1538
2023-05-15T08:58:42.879Z,24.4615
2023-05-15T08:59:44.640Z,15.4615
2023-05-15T09:00:46.368Z,21.2308
2023-05-15T09:01:48.142Z,22.0000
2023-05-15T09:02:49.933Z,25.9231
2023-05-15T09:03:51.589Z,22.2308
2023-05-15T09:04:53.263Z,21.7692
2023-05-15T09:05:55.034Z,19.4615
2023-05-15T09:06:56.740Z,25.6154
2023-05-15T09:07:58.462Z,19.5385
2023-05-15T09:09:00.269Z,22.0769
2023-05-15T09:10:01.922Z,24.6154
2023-05-15T09:11:03.646Z,26.6154
2023-05-15T09:12:05.361Z,23.1538
2023-05-15T09:13:07.118Z,23.2308
2023-05-15T09:14:08.842Z,22.0000
2023-05-15T09:15:10.557Z,14.5385
2023-05-15T09:16:12.291Z,16.6154
2023-05-15T09:17:14.038Z,21.1538
2023-05-15T09:18:15.744Z,22.1538
2023-05-15T09:19:17.519Z,23.5385
2023-05-15T09:20:19.300Z,22.5385
2023-05-15T09:21:20.952Z,23.1538
2023-05-15T09:22:22.685Z,22.3846
2023-05-15T09:23:24.408Z,21.2308
2023-05-15T09:24:26.110Z,17.0000
2023-05-15T09:25:27.835Z,20.3846
2023-05-15T09:26:29.596Z,22.5385
2023-05-15T09:27:31.302Z,26.0769
2023-05-15T09:28:33.051Z,21.5385
2023-05-15T09:29:34.785Z,24.6154
2023-05-15T09:30:36.529Z,26.5385
2023-05-15T09:31:38.233Z,24.3077
2023-05-15T09:32:39.992Z,22.6923
2023-05-15T09:33:41.713Z,16.6154
2023-05-15T09:34:43.447Z,12.7692
2023-05-15T09:35:45.171Z,9.6154
2023-05-15T09:36:46.899Z,13.2308
2023-05-15T09:37:48.609Z,19.2308
2023-05-15T09:38:50.361Z,18.3077
2023-05-15T09:39:52.081Z,23.2308
2023-05-15T09:40:53.817Z,20.2308
2023-05-15T09:41:55.529Z,17.0769
2023-05-15T09:42:57.283Z,18.0000
2023-05-15T09:43:58.981Z,15.5385
2023-05-15T09:45:00.736Z,13.3846
2023-05-15T09:46:02.518Z,11.8462
2023-05-15T09:47:04.304Z,13.3846
2023-05-15T09:48:05.989Z,12.3846
2023-05-15T09:49:07.639Z,14.7692
2023-05-15T09:50:09.374Z,10.3846
2023-05-15T09:51:11.115Z,17.5385
2023-05-15T09:52:12.840Z,14.5385
2023-05-15T09:53:14.765Z,20.0769
2023-05-15T09:54:16.288Z,20.6923
2023-05-15T09:55:18.013Z,20.0000
2023-05-15T09:56:19.762Z,12.7692
2023-05-15T09:57:21.476Z,8.0769
2023-05-15T09:58:23.203Z,0.3077
2023-05-15T09:59:24.951Z,7.7692
2023-05-15T10:00:26.866Z,15.9231
2023-05-15T10:01:28.403Z,12.3846
2023-05-15T10:02:30.157Z,14.8462
2023-05-15T10:03:31.869Z,16.7692
2023-05-15T10:04:33.569Z,14.6923
2023-05-15T10:05:43.000Z,22.9231
2023-05-15T10:06:37.035Z,20.0769
2023-05-15T10:07:38.750Z,26.2308
2023-05-15T10:08:40.470Z,22.3846
2023-05-15T10:09:42.219Z,17.3077
2023-05-15T10:10:43.987Z,26.3846
2023-05-15T10:11:45.686Z,20.3846
2023-05-15T10:12:48.368Z,21.8462
2023-05-15T10:13:49.111Z,27.9231
2023-05-15T10:14:50.840Z,23.1538
2023-05-15T10:15:52.612Z,26.3846
2023-05-15T10:16:54.425Z,26.2308
2023-05-15T10:17:56.118Z,20.0000
2023-05-15T10:18:57.886Z,28.1538
2023-05-15T10:19:59.500Z,23.4615
2023-05-15T10:21:01.230Z,30.5385
2023-05-15T10:22:02.946Z,26.7692
2023-05-15T10:23:04.679Z,25.3077
2023-05-15T10:24:06.433Z,17.3077
2023-05-15T10:25:08.159Z,20.7692
2023-05-15T10:26:09.855Z,24.0769
2023-05-15T10:27:11.602Z,25.3077
2023-05-15T10:28:13.311Z,29.8462
2023-05-15T10:29:15.076Z,23.5385
2023-05-15T10:30:16.795Z,24.1538
2023-05-15T10:31:18.523Z,20.3077
2023-05-15T10:32:20.230Z,28.1538
2023-05-15T10:33:21.965Z,37.0769
2023-05-15T10:34:23.711Z,36.7692
2023-05-15T10:35:25.445Z,34.0000
2023-05-15T10:36:27.172Z,34.0769
2023-05-15T10:37:28.895Z,34.3077
2023-05-15T10:38:30.612Z,31.3077
2023-05-15T10:39:32.361Z,32.3077
2023-05-15T10:40:34.092Z,34.7692
2023-05-15T10:41:35.823Z,30.0000
2023-05-15T10:42:37.522Z,27.8462
2023-05-15T10:43:39.259Z,30.3846
2023-05-15T10:44:40.983Z,33.2308
2023-05-15T10:45:42.753Z,33.5385
2023-05-15T10:46:44.517Z,30.2308
2023-05-15T10:47:46.233Z,31.7692
2023-05-15T10:48:47.902Z,36.0769
2023-05-15T10:49:49.621Z,35.9231
2023-05-15T10:50:51.380Z,40.0769
2023-05-15T10:51:53.080Z,37.1538
2023-05-15T10:52:54.843Z,32.3077
2023-05-15T10:53:56.575Z,30.6923
2023-05-15T10:54:58.327Z,33.3846
2023-05-15T10:56:00.034Z,41.0000
2023-05-15T10:57:01.816Z,36.2308
2023-05-15T10:58:03.482Z,35.0769
2023-05-15T10:59:05.198Z,36.1538
2023-05-15T11:00:06.938Z,32.7692
2023-05-15T11:01:08.670Z,33.5385
2023-05-15T11:02:10.394Z,39.2308
2023-05-15T11:03:12.153Z,38.2308
2023-05-15T11:04:13.922Z,37.7692
2023-05-15T11:05:15.587Z,34.9231
2023-05-15T11:06:17.308Z,36.7692
2023-05-15T11:07:19.028Z,30.0000
2023-05-15T11:08:20.857Z,37.5385
2023-05-15T11:09:22.561Z,41.7692
2023-05-15T11:10:24.405Z,35.7692
2023-05-15T11:11:25.954Z,33.4615
2023-05-15T11:12:27.713Z,40.4615
2023-05-15T11:13:29.409Z,40.3846
2023-05-15T11:14:31.116Z,35.6154
2023-05-15T11:15:32.845Z,37.2308
2023-05-15T11:16:34.611Z,38.2308
2023-05-15T11:17:36.359Z,38.3077
2023-05-15T11:18:38.059Z,41.9231
2023-05-15T11:19:39.760Z,40.6923
2023-05-15T11:20:41.500Z,43.0000
2023-05-15T11:21:43.208Z,43.3846
2023-05-15T11:22:44.955Z,39.8462
2023-05-15T11:23:46.682Z,42.9231
2023-05-15T11:24:48.426Z,40.9231
2023-05-15T11:25:50.140Z,38.7692
2023-05-15T11:26:51.855Z,42.5385
2023-05-15T11:27:53.592Z,44.7692
2023-05-15T11:28:55.318Z,43.3077
2023-05-15T11:29:57.049Z,40.9231
2023-05-15T11:30:58.793Z,41.2308
2023-05-15T11:32:00.500Z,41.6923
2023-05-15T11:33:02.266Z,39.6923
2023-05-15T11:34:03.977Z,41.8462
2023-05-15T11:35:05.689Z,42.3846
2023-05-15T11:36:07.425Z,49.1538
2023-05-15T11:37:09.187Z,40.9231
2023-05-15T11:38:10.932Z,41.2308
2023-05-15T11:39:12.604Z,45.2308
2023-05-15T11:40:14.341Z,49.4615
2023-05-15T11:41:16.055Z,46.3846
2023-05-15T11:42:17.815Z,45.7692
2023-05-15T11:43:19.537Z,44.0769
2023-05-15T11:44:21.263Z,51.2308
2023-05-15T11:45:23.017Z,49.3846
2023-05-15T11:46:24.737Z,46.6923
2023-05-15T11:47:26.452Z,45.7692
2023-05-15T11:48:28.191Z,46.3077
2023-05-15T11:49:29.911Z,34.6154
2023-05-15T11:50:31.626Z,35.7692
2023-05-15T11:51:33.358Z,34.0769
2023-05-15T11:52:35.139Z,42.4615
2023-05-15T11:53:36.837Z,38.6154
2023-05-15T11:54:38.557Z,33.4615
2023-05-15T11:55:40.267Z,36.9231
2023-05-15T11:56:42.019Z,35.5385
2023-05-15T11:57:43.749Z,40.0769
2023-05-15T11:58:45.463Z,43.4615
2023-05-15T11:59:47.256Z,45.2308
2023-05-15T12:00:48.918Z,46.9231
2023-05-15T12:01:50.768Z,37.7692
2023-05-15T12:02:52.568Z,36.3077
2023-05-15T12:03:54.612Z,41.0769
2023-05-15T12:04:55.965Z,43.6923
2023-05-15T12:06:00.087Z,40.3077
2023-05-15T12:07:00.480Z,38.6154
2023-05-15T12:08:01.126Z,45.3846
2023-05-15T12:09:02.865Z,34.0000
2023-05-15T12:10:04.592Z,46.6923
2023-05-15T12:11:06.321Z,39.3846
2023-05-15T12:12:08.077Z,39.9231
2023-05-15T12:13:09.783Z,37.7692
2023-05-15T12:14:11.538Z,36.6923
2023-05-15T12:15:13.237Z,39.3077
2023-05-15T12:16:15.003Z,31.6154
2023-05-15T12:17:16.691Z,35.0000
2023-05-15T12:18:18.454Z,33.6923
2023-05-15T12:19:20.239Z,39.0769
2023-05-15T12:20:21.916Z,34.3846
2023-05-15T12:21:23.659Z,39.9231
2023-05-15T12:22:25.354Z,36.3077
2023-05-15T12:23:27.091Z,37.3846
2023-05-15T12:24:28.837Z,34.3846
2023-05-15T12:25:30.574Z,38.1538
2023-05-15T12:26:32.293Z,35.9231
2023-05-15T12:27:34.031Z,38.6154
2023-05-15T12:28:35.770Z,35.1538
2023-05-15T12:29:37.481Z,34.0769
2023-05-15T12:30:39.240Z,33.4615
2023-05-15T12:31:40.958Z,38.1538
2023-05-15T12:32:42.707Z,44.6923
2023-05-15T12:33:44.424Z,34.8462
2023-05-15T12:34:46.144Z,36.7692
2023-05-15T12:35:47.867Z,44.9231
2023-05-15T12:36:49.576Z,35.3077
2023-05-15T12:37:51.315Z,34.7692
2023-05-15T12:38:53.065Z,41.5385
2023-05-15T12:39:54.800Z,36.6154
2023-05-15T12:40:56.528Z,38.9231
2023-05-15T12:41:58.290Z,33.3077